sensor_id;sensor_type;location;lat;lon;timestamp;pressure;altitude;pressure_sealevel;temperature;humidity
58373;BME280;44177;43.356;27.672;2023-04-10T00:01:37;98373.72;;;4.69;68.36
58373;BME280;44177;43.356;27.672;2023-04-10T00:04:03;98352.81;;;4.61;69.21
58373;BME280;44177;43.356;27.672;2023-04-10T00:06:29;98367.19;;;4.70;68.83
58373;BME280;44177;43.356;27.672;2023-04-10T00:08:56;98350.59;;;4.63;68.74
58373;BME280;44177;43.356;27.672;2023-04-10T00:11:21;98354.81;;;4.69;68.58
58373;BME280;44177;43.356;27.672;2023-04-10T00:13:47;98356.50;;;4.65;67.85
58373;BME280;44177;43.356;27.672;2023-04-10T00:16:12;98359.00;;;4.62;67.87
58373;BME280;44177;43.356;27.672;2023-04-10T00:18:38;98334.00;;;4.42;67.88
58373;BME280;44177;43.356;27.672;2023-04-10T00:21:03;98351.03;;;4.56;68.11
58373;BME280;44177;43.356;27.672;2023-04-10T00:23:29;98357.22;;;4.57;68.18
58373;BME280;44177;43.356;27.672;2023-04-10T00:25:56;98359.91;;;4.57;67.90
58373;BME280;44177;43.356;27.672;2023-04-10T00:28:22;98363.22;;;4.54;67.59
58373;BME280;44177;43.356;27.672;2023-04-10T00:30:47;98350.44;;;4.46;67.58
58373;BME280;44177;43.356;27.672;2023-04-10T00:33:13;98345.44;;;4.39;67.27
58373;BME280;44177;43.356;27.672;2023-04-10T00:35:38;98336.75;;;4.28;67.75
58373;BME280;44177;43.356;27.672;2023-04-10T00:38:04;98347.53;;;4.28;68.24
58373;BME280;44177;43.356;27.672;2023-04-10T00:40:29;98339.91;;;4.30;68.10
58373;BME280;44177;43.356;27.672;2023-04-10T00:42:55;98337.22;;;4.30;67.83
58373;BME280;44177;43.356;27.672;2023-04-10T00:45:21;98332.13;;;4.29;68.07
58373;BME280;44177;43.356;27.672;2023-04-10T00:47:47;98325.75;;;4.24;67.36
58373;BME280;44177;43.356;27.672;2023-04-10T00:50:13;98326.34;;;4.21;67.06
58373;BME280;44177;43.356;27.672;2023-04-10T00:52:38;98318.63;;;4.15;67.56
58373;BME280;44177;43.356;27.672;2023-04-10T00:55:04;98323.03;;;4.10;67.45
58373;BME280;44177;43.356;27.672;2023-04-10T00:57:30;98326.84;;;4.09;67.37
58373;BME280;44177;43.356;27.672;2023-04-10T00:59:57;98314.44;;;4.08;67.30
58373;BME280;44177;43.356;27.672;2023-04-10T01:02:23;98304.44;;;3.95;67.55
58373;BME280;44177;43.356;27.672;2023-04-10T01:04:48;98318.94;;;3.99;67.53
58373;BME280;44177;43.356;27.672;2023-04-10T01:07:31;98314.16;;;3.96;67.94
58373;BME280;44177;43.356;27.672;2023-04-10T01:10:05;98320.63;;;3.95;68.08
58373;BME280;44177;43.356;27.672;2023-04-10T01:12:54;98314.84;;;3.88;68.90
58373;BME280;44177;43.356;27.672;2023-04-10T01:15:25;98303.44;;;3.91;68.45
58373;BME280;44177;43.356;27.672;2023-04-10T01:18:07;98303.16;;;3.92;68.63
58373;BME280;44177;43.356;27.672;2023-04-10T01:20:37;98300.03;;;3.99;68.44
58373;BME280;44177;43.356;27.672;2023-04-10T01:26:12;98309.72;;;4.00;68.14
58373;BME280;44177;43.356;27.672;2023-04-10T01:28:56;98310.63;;;3.95;68.21
58373;BME280;44177;43.356;27.672;2023-04-10T01:34:14;98318.25;;;3.93;68.36
58373;BME280;44177;43.356;27.672;2023-04-10T01:37:21;98283.47;;;3.78;67.86
58373;BME280;44177;43.356;27.672;2023-04-10T01:39:55;98314.72;;;3.93;67.84
58373;BME280;44177;43.356;27.672;2023-04-10T01:42:24;98311.84;;;3.89;67.45
58373;BME280;44177;43.356;27.672;2023-04-10T01:44:52;98299.25;;;3.85;67.67
58373;BME280;44177;43.356;27.672;2023-04-10T01:47:18;98299.34;;;3.79;67.49
58373;BME280;44177;43.356;27.672;2023-04-10T01:49:46;98310.94;;;3.80;67.38
58373;BME280;44177;43.356;27.672;2023-04-10T01:52:13;98317.00;;;3.58;67.36
58373;BME280;44177;43.356;27.672;2023-04-10T01:54:40;98298.41;;;3.56;68.09
58373;BME280;44177;43.356;27.672;2023-04-10T01:57:07;98305.34;;;3.62;68.63
58373;BME280;44177;43.356;27.672;2023-04-10T01:59:34;98301.22;;;3.65;68.95
58373;BME280;44177;43.356;27.672;2023-04-10T02:02:02;98296.81;;;3.69;68.84
58373;BME280;44177;43.356;27.672;2023-04-10T02:04:28;98305.53;;;3.66;68.64
58373;BME280;44177;43.356;27.672;2023-04-10T02:07:27;98303.53;;;3.58;68.83
58373;BME280;44177;43.356;27.672;2023-04-10T02:10:01;98301.31;;;3.60;69.07
58373;BME280;44177;43.356;27.672;2023-04-10T02:12:35;98287.94;;;3.55;68.46
58373;BME280;44177;43.356;27.672;2023-04-10T02:15:04;98297.03;;;3.59;68.83
58373;BME280;44177;43.356;27.672;2023-04-10T02:17:32;98285.59;;;3.48;69.12
58373;BME280;44177;43.356;27.672;2023-04-10T02:19:59;98298.13;;;3.58;69.38
58373;BME280;44177;43.356;27.672;2023-04-10T02:22:25;98292.44;;;3.59;69.24
58373;BME280;44177;43.356;27.672;2023-04-10T02:24:52;98288.44;;;3.57;69.06
58373;BME280;44177;43.356;27.672;2023-04-10T02:27:29;98280.41;;;3.52;69.04
58373;BME280;44177;43.356;27.672;2023-04-10T02:29:54;98281.94;;;3.58;69.26
58373;BME280;44177;43.356;27.672;2023-04-10T02:32:21;98286.81;;;3.56;69.83
58373;BME280;44177;43.356;27.672;2023-04-10T02:34:47;98273.25;;;3.47;70.13
58373;BME280;44177;43.356;27.672;2023-04-10T02:37:12;98275.94;;;3.47;70.50
58373;BME280;44177;43.356;27.672;2023-04-10T02:39:38;98279.13;;;3.49;70.60
58373;BME280;44177;43.356;27.672;2023-04-10T02:42:03;98278.41;;;3.43;70.67
58373;BME280;44177;43.356;27.672;2023-04-10T02:44:29;98277.41;;;3.39;71.00
58373;BME280;44177;43.356;27.672;2023-04-10T02:46:54;98275.81;;;3.38;71.18
58373;BME280;44177;43.356;27.672;2023-04-10T02:49:20;98277.41;;;3.39;70.73
58373;BME280;44177;43.356;27.672;2023-04-10T02:51:45;98274.81;;;3.34;70.52
58373;BME280;44177;43.356;27.672;2023-04-10T02:54:11;98267.81;;;3.33;70.34
58373;BME280;44177;43.356;27.672;2023-04-10T02:56:36;98253.91;;;3.26;70.24
58373;BME280;44177;43.356;27.672;2023-04-10T02:59:02;98280.22;;;3.34;70.46
58373;BME280;44177;43.356;27.672;2023-04-10T03:01:27;98272.59;;;3.36;70.51
58373;BME280;44177;43.356;27.672;2023-04-10T03:03:53;98275.59;;;3.35;70.67
58373;BME280;44177;43.356;27.672;2023-04-10T03:06:18;98274.31;;;3.32;70.99
58373;BME280;44177;43.356;27.672;2023-04-10T03:08:45;98268.41;;;3.30;71.11
58373;BME280;44177;43.356;27.672;2023-04-10T03:11:10;98279.59;;;3.37;71.23
58373;BME280;44177;43.356;27.672;2023-04-10T03:13:35;98256.53;;;3.31;71.17
58373;BME280;44177;43.356;27.672;2023-04-10T03:16:01;98265.13;;;3.33;71.20
58373;BME280;44177;43.356;27.672;2023-04-10T03:18:26;98265.31;;;3.37;71.05
58373;BME280;44177;43.356;27.672;2023-04-10T03:20:52;98265.44;;;3.45;70.98
58373;BME280;44177;43.356;27.672;2023-04-10T03:23:17;98268.63;;;3.47;70.97
58373;BME280;44177;43.356;27.672;2023-04-10T03:25:43;98257.44;;;3.40;70.85
58373;BME280;44177;43.356;27.672;2023-04-10T03:28:08;98263.44;;;3.51;70.80
58373;BME280;44177;43.356;27.672;2023-04-10T03:30:34;98261.47;;;3.57;70.28
58373;BME280;44177;43.356;27.672;2023-04-10T03:33:01;98270.84;;;3.59;70.45
58373;BME280;44177;43.356;27.672;2023-04-10T03:35:27;98253.44;;;3.52;70.28
58373;BME280;44177;43.356;27.672;2023-04-10T03:37:52;98265.25;;;3.56;70.19
58373;BME280;44177;43.356;27.672;2023-04-10T03:40:18;98278.75;;;3.56;69.97
58373;BME280;44177;43.356;27.672;2023-04-10T03:42:43;98270.44;;;3.52;70.03
58373;BME280;44177;43.356;27.672;2023-04-10T03:45:09;98272.25;;;3.57;70.08
58373;BME280;44177;43.356;27.672;2023-04-10T03:47:35;98268.47;;;3.58;70.74
58373;BME280;44177;43.356;27.672;2023-04-10T03:50:00;98273.16;;;3.66;70.79
58373;BME280;44177;43.356;27.672;2023-04-10T03:52:26;98275.16;;;3.74;70.88
58373;BME280;44177;43.356;27.672;2023-04-10T03:54:55;98276.66;;;3.81;71.15
58373;BME280;44177;43.356;27.672;2023-04-10T03:57:20;98269.28;;;3.86;71.15
58373;BME280;44177;43.356;27.672;2023-04-10T03:59:46;98266.47;;;3.91;71.44
58373;BME280;44177;43.356;27.672;2023-04-10T04:02:12;98267.03;;;4.02;71.75
58373;BME280;44177;43.356;27.672;2023-04-10T04:04:38;98257.25;;;4.06;72.00
58373;BME280;44177;43.356;27.672;2023-04-10T04:07:04;98253.94;;;4.09;72.33
58373;BME280;44177;43.356;27.672;2023-04-10T04:09:29;98250.66;;;4.13;72.53
58373;BME280;44177;43.356;27.672;2023-04-10T04:11:55;98247.81;;;4.18;72.38
58373;BME280;44177;43.356;27.672;2023-04-10T04:14:22;98251.81;;;4.34;72.44
58373;BME280;44177;43.356;27.672;2023-04-10T04:16:48;98253.78;;;4.42;72.38
58373;BME280;44177;43.356;27.672;2023-04-10T04:19:13;98265.94;;;4.54;71.87
58373;BME280;44177;43.356;27.672;2023-04-10T04:21:39;98273.94;;;4.59;71.54
58373;BME280;44177;43.356;27.672;2023-04-10T04:24:04;98270.56;;;4.53;71.56
58373;BME280;44177;43.356;27.672;2023-04-10T04:26:30;98248.94;;;4.53;71.34
58373;BME280;44177;43.356;27.672;2023-04-10T04:28:55;98266.41;;;4.70;71.25
58373;BME280;44177;43.356;27.672;2023-04-10T04:31:21;98239.38;;;4.70;70.89
58373;BME280;44177;43.356;27.672;2023-04-10T04:33:46;98274.97;;;5.09;70.59
58373;BME280;44177;43.356;27.672;2023-04-10T04:36:12;98272.72;;;5.11;70.52
58373;BME280;44177;43.356;27.672;2023-04-10T04:38:37;98283.31;;;5.21;70.45
58373;BME280;44177;43.356;27.672;2023-04-10T04:41:03;98283.66;;;5.28;70.04
58373;BME280;44177;43.356;27.672;2023-04-10T04:43:28;98282.13;;;5.36;69.71
58373;BME280;44177;43.356;27.672;2023-04-10T04:45:54;98274.50;;;5.38;70.07
58373;BME280;44177;43.356;27.672;2023-04-10T04:48:19;98274.06;;;5.45;70.07
58373;BME280;44177;43.356;27.672;2023-04-10T04:50:44;98269.13;;;5.47;69.84
58373;BME280;44177;43.356;27.672;2023-04-10T04:53:10;98275.75;;;5.63;70.11
58373;BME280;44177;43.356;27.672;2023-04-10T04:55:36;98279.16;;;5.78;69.81
58373;BME280;44177;43.356;27.672;2023-04-10T04:58:01;98269.91;;;5.79;70.04
58373;BME280;44177;43.356;27.672;2023-04-10T05:00:27;98275.03;;;5.89;69.60
58373;BME280;44177;43.356;27.672;2023-04-10T05:02:52;98269.38;;;5.99;69.61
58373;BME280;44177;43.356;27.672;2023-04-10T05:05:17;98275.28;;;6.02;69.76
58373;BME280;44177;43.356;27.672;2023-04-10T05:07:43;98276.88;;;6.03;69.14
58373;BME280;44177;43.356;27.672;2023-04-10T05:10:08;98270.97;;;6.09;69.37
58373;BME280;44177;43.356;27.672;2023-04-10T05:12:34;98271.34;;;6.25;69.42
58373;BME280;44177;43.356;27.672;2023-04-10T05:15:00;98271.66;;;6.24;69.14
58373;BME280;44177;43.356;27.672;2023-04-10T05:17:25;98281.41;;;6.34;69.34
58373;BME280;44177;43.356;27.672;2023-04-10T05:19:51;98273.13;;;6.47;68.96
58373;BME280;44177;43.356;27.672;2023-04-10T05:22:16;98281.09;;;6.61;68.82
58373;BME280;44177;43.356;27.672;2023-04-10T05:24:42;98285.13;;;6.73;68.65
58373;BME280;44177;43.356;27.672;2023-04-10T05:27:07;98274.59;;;6.80;68.41
58373;BME280;44177;43.356;27.672;2023-04-10T05:29:33;98251.59;;;6.69;68.38
58373;BME280;44177;43.356;27.672;2023-04-10T05:31:58;98268.53;;;6.92;68.23
58373;BME280;44177;43.356;27.672;2023-04-10T05:34:24;98283.00;;;7.14;68.48
58373;BME280;44177;43.356;27.672;2023-04-10T05:36:49;98290.03;;;7.15;68.41
58373;BME280;44177;43.356;27.672;2023-04-10T05:39:15;98277.41;;;7.27;68.49
58373;BME280;44177;43.356;27.672;2023-04-10T05:41:41;98273.72;;;7.32;68.39
58373;BME280;44177;43.356;27.672;2023-04-10T05:44:07;98278.66;;;7.39;68.02
58373;BME280;44177;43.356;27.672;2023-04-10T05:46:32;98277.66;;;7.52;67.38
58373;BME280;44177;43.356;27.672;2023-04-10T05:48:58;98268.22;;;7.58;67.28
58373;BME280;44177;43.356;27.672;2023-04-10T05:51:24;98273.75;;;7.71;67.36
58373;BME280;44177;43.356;27.672;2023-04-10T05:53:50;98273.22;;;7.86;66.66
58373;BME280;44177;43.356;27.672;2023-04-10T05:56:16;98263.78;;;7.93;66.82
58373;BME280;44177;43.356;27.672;2023-04-10T05:58:41;98279.47;;;8.17;66.64
58373;BME280;44177;43.356;27.672;2023-04-10T06:01:07;98270.34;;;8.21;66.75
58373;BME280;44177;43.356;27.672;2023-04-10T06:03:32;98273.25;;;8.37;66.13
58373;BME280;44177;43.356;27.672;2023-04-10T06:05:59;98277.22;;;8.49;66.20
58373;BME280;44177;43.356;27.672;2023-04-10T06:08:26;98281.28;;;8.64;65.40
58373;BME280;44177;43.356;27.672;2023-04-10T06:10:52;98273.69;;;8.69;64.43
58373;BME280;44177;43.356;27.672;2023-04-10T06:13:17;98267.22;;;8.83;64.82
58373;BME280;44177;43.356;27.672;2023-04-10T06:15:43;98266.91;;;8.97;63.25
58373;BME280;44177;43.356;27.672;2023-04-10T06:18:09;98273.41;;;9.05;63.13
58373;BME280;44177;43.356;27.672;2023-04-10T06:20:34;98265.84;;;9.10;63.87
58373;BME280;44177;43.356;27.672;2023-04-10T06:23:00;98266.75;;;9.14;64.08
58373;BME280;44177;43.356;27.672;2023-04-10T06:25:25;98271.78;;;9.25;62.64
58373;BME280;44177;43.356;27.672;2023-04-10T06:27:51;98266.81;;;9.27;62.77
58373;BME280;44177;43.356;27.672;2023-04-10T06:30:16;98276.78;;;9.23;62.77
58373;BME280;44177;43.356;27.672;2023-04-10T06:32:42;98270.97;;;9.24;62.96
58373;BME280;44177;43.356;27.672;2023-04-10T06:35:07;98272.03;;;9.32;63.59
58373;BME280;44177;43.356;27.672;2023-04-10T06:37:33;98263.22;;;9.35;63.84
58373;BME280;44177;43.356;27.672;2023-04-10T06:40:09;98268.66;;;9.47;64.23
58373;BME280;44177;43.356;27.672;2023-04-10T06:42:36;98266.66;;;9.57;63.21
58373;BME280;44177;43.356;27.672;2023-04-10T06:45:02;98275.63;;;9.70;62.83
58373;BME280;44177;43.356;27.672;2023-04-10T06:47:28;98280.75;;;9.71;62.33
58373;BME280;44177;43.356;27.672;2023-04-10T06:49:54;98263.03;;;9.77;61.71
58373;BME280;44177;43.356;27.672;2023-04-10T06:52:19;98282.13;;;9.90;60.87
58373;BME280;44177;43.356;27.672;2023-04-10T06:54:45;98282.34;;;9.85;61.46
58373;BME280;44177;43.356;27.672;2023-04-10T06:57:10;98278.47;;;9.86;60.58
58373;BME280;44177;43.356;27.672;2023-04-10T06:59:36;98281.78;;;9.91;61.41
58373;BME280;44177;43.356;27.672;2023-04-10T07:02:04;98291.88;;;9.91;60.94
58373;BME280;44177;43.356;27.672;2023-04-10T07:04:30;98290.31;;;9.90;61.11
58373;BME280;44177;43.356;27.672;2023-04-10T07:06:56;98292.56;;;10.00;60.99
58373;BME280;44177;43.356;27.672;2023-04-10T07:09:24;98290.06;;;10.07;61.39
58373;BME280;44177;43.356;27.672;2023-04-10T07:11:50;98289.94;;;10.28;61.00
58373;BME280;44177;43.356;27.672;2023-04-10T07:14:16;98285.53;;;10.36;59.57
58373;BME280;44177;43.356;27.672;2023-04-10T07:16:42;98282.78;;;10.49;58.96
58373;BME280;44177;43.356;27.672;2023-04-10T07:19:07;98283.22;;;10.63;58.28
58373;BME280;44177;43.356;27.672;2023-04-10T07:21:32;98293.19;;;10.84;57.58
58373;BME280;44177;43.356;27.672;2023-04-10T07:23:58;98286.22;;;10.86;57.59
58373;BME280;44177;43.356;27.672;2023-04-10T07:26:23;98290.56;;;11.16;56.01
58373;BME280;44177;43.356;27.672;2023-04-10T07:28:50;98290.97;;;11.46;56.68
58373;BME280;44177;43.356;27.672;2023-04-10T07:31:15;98281.84;;;11.71;56.51
58373;BME280;44177;43.356;27.672;2023-04-10T07:33:44;98285.44;;;11.75;57.46
58373;BME280;44177;43.356;27.672;2023-04-10T07:36:09;98284.22;;;11.88;54.82
58373;BME280;44177;43.356;27.672;2023-04-10T07:38:35;98284.03;;;11.81;54.10
58373;BME280;44177;43.356;27.672;2023-04-10T07:41:01;98290.03;;;11.87;53.87
58373;BME280;44177;43.356;27.672;2023-04-10T07:43:27;98286.44;;;11.82;53.11
58373;BME280;44177;43.356;27.672;2023-04-10T07:45:54;98286.50;;;11.54;53.19
58373;BME280;44177;43.356;27.672;2023-04-10T07:48:20;98290.84;;;11.27;53.63
58373;BME280;44177;43.356;27.672;2023-04-10T07:50:45;98295.47;;;11.38;54.87
58373;BME280;44177;43.356;27.672;2023-04-10T07:53:11;98287.09;;;11.47;54.61
58373;BME280;44177;43.356;27.672;2023-04-10T07:55:41;98277.94;;;11.56;54.02
58373;BME280;44177;43.356;27.672;2023-04-10T07:58:07;98270.03;;;11.66;53.89
58373;BME280;44177;43.356;27.672;2023-04-10T08:00:32;98266.59;;;11.69;53.26
58373;BME280;44177;43.356;27.672;2023-04-10T08:02:58;98277.56;;;12.02;54.75
58373;BME280;44177;43.356;27.672;2023-04-10T08:05:23;98273.66;;;12.19;53.11
58373;BME280;44177;43.356;27.672;2023-04-10T08:07:49;98282.97;;;12.34;52.83
58373;BME280;44177;43.356;27.672;2023-04-10T08:10:15;98270.06;;;12.50;53.75
58373;BME280;44177;43.356;27.672;2023-04-10T08:12:40;98271.59;;;12.87;52.89
58373;BME280;44177;43.356;27.672;2023-04-10T08:15:06;98265.88;;;13.15;51.81
58373;BME280;44177;43.356;27.672;2023-04-10T08:17:32;98259.69;;;13.18;52.04
58373;BME280;44177;43.356;27.672;2023-04-10T08:19:57;98265.59;;;13.40;50.87
58373;BME280;44177;43.356;27.672;2023-04-10T08:22:22;98262.38;;;13.57;51.04
58373;BME280;44177;43.356;27.672;2023-04-10T08:24:48;98255.16;;;13.69;50.61
58373;BME280;44177;43.356;27.672;2023-04-10T08:27:13;98252.22;;;13.81;50.00
58373;BME280;44177;43.356;27.672;2023-04-10T08:29:41;98262.56;;;13.92;49.92
58373;BME280;44177;43.356;27.672;2023-04-10T08:32:06;98255.16;;;14.19;50.28
58373;BME280;44177;43.356;27.672;2023-04-10T08:34:32;98254.44;;;14.26;50.54
58373;BME280;44177;43.356;27.672;2023-04-10T08:36:58;98250.81;;;14.45;48.68
58373;BME280;44177;43.356;27.672;2023-04-10T08:39:23;98238.09;;;14.33;48.33
58373;BME280;44177;43.356;27.672;2023-04-10T08:41:49;98237.47;;;14.43;48.22
58373;BME280;44177;43.356;27.672;2023-04-10T08:44:15;98247.66;;;14.43;48.86
58373;BME280;44177;43.356;27.672;2023-04-10T08:46:42;98246.91;;;14.46;47.85
58373;BME280;44177;43.356;27.672;2023-04-10T08:49:14;98238.50;;;14.62;49.24
58373;BME280;44177;43.356;27.672;2023-04-10T08:51:56;98234.81;;;14.50;48.67
58373;BME280;44177;43.356;27.672;2023-04-10T08:54:27;98239.03;;;14.44;49.48
58373;BME280;44177;43.356;27.672;2023-04-10T08:56:53;98242.38;;;14.03;49.41
58373;BME280;44177;43.356;27.672;2023-04-10T08:59:20;98232.59;;;13.79;50.59
58373;BME280;44177;43.356;27.672;2023-04-10T09:01:45;98231.75;;;13.75;50.31
58373;BME280;44177;43.356;27.672;2023-04-10T09:04:11;98238.44;;;13.54;51.12
58373;BME280;44177;43.356;27.672;2023-04-10T09:06:38;98222.94;;;13.19;52.40
58373;BME280;44177;43.356;27.672;2023-04-10T09:09:06;98220.97;;;12.97;53.25
58373;BME280;44177;43.356;27.672;2023-04-10T09:14:20;98215.34;;;12.89;53.47
58373;BME280;44177;43.356;27.672;2023-04-10T09:16:46;98210.06;;;12.80;54.21
58373;BME280;44177;43.356;27.672;2023-04-10T09:19:12;98213.31;;;12.86;55.20
58373;BME280;44177;43.356;27.672;2023-04-10T09:21:37;98202.81;;;12.88;54.99
58373;BME280;44177;43.356;27.672;2023-04-10T09:24:03;98199.75;;;12.93;55.98
58373;BME280;44177;43.356;27.672;2023-04-10T09:26:31;98204.66;;;13.04;55.24
58373;BME280;44177;43.356;27.672;2023-04-10T09:29:05;98199.75;;;13.13;54.60
58373;BME280;44177;43.356;27.672;2023-04-10T09:31:32;98194.09;;;13.25;54.84
58373;BME280;44177;43.356;27.672;2023-04-10T09:34:21;98199.31;;;13.11;54.64
58373;BME280;44177;43.356;27.672;2023-04-10T09:39:20;98188.66;;;13.06;55.60
58373;BME280;44177;43.356;27.672;2023-04-10T09:41:48;98183.00;;;13.18;55.40
58373;BME280;44177;43.356;27.672;2023-04-10T09:44:17;98177.41;;;13.11;55.71
58373;BME280;44177;43.356;27.672;2023-04-10T09:46:43;98164.88;;;12.90;55.51
58373;BME280;44177;43.356;27.672;2023-04-10T09:49:09;98185.19;;;13.09;55.61
58373;BME280;44177;43.356;27.672;2023-04-10T09:51:35;98186.19;;;13.20;56.27
58373;BME280;44177;43.356;27.672;2023-04-10T09:54:02;98186.56;;;13.42;55.67
58373;BME280;44177;43.356;27.672;2023-04-10T09:56:28;98174.03;;;13.64;55.82
58373;BME280;44177;43.356;27.672;2023-04-10T09:58:59;98170.16;;;13.96;55.12
58373;BME280;44177;43.356;27.672;2023-04-10T10:01:26;98156.97;;;14.05;54.00
58373;BME280;44177;43.356;27.672;2023-04-10T10:04:00;98166.66;;;14.26;54.27
58373;BME280;44177;43.356;27.672;2023-04-10T10:06:27;98160.44;;;14.29;53.82
58373;BME280;44177;43.356;27.672;2023-04-10T10:08:53;98157.56;;;14.18;53.50
58373;BME280;44177;43.356;27.672;2023-04-10T10:11:22;98159.72;;;14.05;53.35
58373;BME280;44177;43.356;27.672;2023-04-10T10:13:50;98162.22;;;14.17;54.15
58373;BME280;44177;43.356;27.672;2023-04-10T10:16:49;98155.78;;;14.33;54.14
58373;BME280;44177;43.356;27.672;2023-04-10T10:19:20;98153.44;;;14.35;53.04
58373;BME280;44177;43.356;27.672;2023-04-10T10:21:48;98152.75;;;14.42;54.49
58373;BME280;44177;43.356;27.672;2023-04-10T10:24:18;98146.41;;;14.37;53.89
58373;BME280;44177;43.356;27.672;2023-04-10T10:26:46;98147.06;;;14.24;53.83
58373;BME280;44177;43.356;27.672;2023-04-10T10:29:14;98139.09;;;14.15;54.09
58373;BME280;44177;43.356;27.672;2023-04-10T10:31:43;98146.97;;;13.89;54.42
58373;BME280;44177;43.356;27.672;2023-04-10T10:34:08;98135.28;;;13.66;54.06
58373;BME280;44177;43.356;27.672;2023-04-10T10:36:35;98143.00;;;13.60;54.98
58373;BME280;44177;43.356;27.672;2023-04-10T10:42:09;98136.84;;;13.67;54.91
58373;BME280;44177;43.356;27.672;2023-04-10T10:47:56;98124.31;;;13.66;53.99
58373;BME280;44177;43.356;27.672;2023-04-10T10:50:21;98114.28;;;13.77;53.53
58373;BME280;44177;43.356;27.672;2023-04-10T10:52:51;98110.69;;;14.00;53.43
58373;BME280;44177;43.356;27.672;2023-04-10T10:57:58;98102.13;;;14.05;53.49
58373;BME280;44177;43.356;27.672;2023-04-10T11:01:02;98110.53;;;14.19;53.33
58373;BME280;44177;43.356;27.672;2023-04-10T11:05:53;98091.09;;;14.32;52.83
58373;BME280;44177;43.356;27.672;2023-04-10T11:13:30;98087.44;;;14.20;53.13
58373;BME280;44177;43.356;27.672;2023-04-10T11:15:56;98072.16;;;14.23;52.79
58373;BME280;44177;43.356;27.672;2023-04-10T11:21:16;98068.97;;;14.51;52.59
58373;BME280;44177;43.356;27.672;2023-04-10T11:31:32;98060.47;;;13.96;53.30
58373;BME280;44177;43.356;27.672;2023-04-10T11:34:05;98052.59;;;13.90;53.55
58373;BME280;44177;43.356;27.672;2023-04-10T11:36:34;98064.84;;;13.70;53.40
58373;BME280;44177;43.356;27.672;2023-04-10T11:39:07;98059.38;;;13.43;54.19
58373;BME280;44177;43.356;27.672;2023-04-10T11:44:03;98062.69;;;13.06;53.17
58373;BME280;44177;43.356;27.672;2023-04-10T11:46:29;98070.66;;;12.91;53.94
58373;BME280;44177;43.356;27.672;2023-04-10T11:48:58;98069.63;;;13.00;54.01
58373;BME280;44177;43.356;27.672;2023-04-10T11:51:24;98058.31;;;13.01;53.88
58373;BME280;44177;43.356;27.672;2023-04-10T11:54:10;98070.72;;;13.18;53.94
58373;BME280;44177;43.356;27.672;2023-04-10T11:56:37;98059.44;;;13.23;53.41
58373;BME280;44177;43.356;27.672;2023-04-10T11:59:03;98047.47;;;13.08;52.08
58373;BME280;44177;43.356;27.672;2023-04-10T12:01:34;98065.94;;;13.15;52.04
58373;BME280;44177;43.356;27.672;2023-04-10T12:03:59;98071.47;;;13.19;51.02
58373;BME280;44177;43.356;27.672;2023-04-10T12:06:26;98062.59;;;13.25;50.66
58373;BME280;44177;43.356;27.672;2023-04-10T12:08:52;98049.22;;;13.20;50.25
58373;BME280;44177;43.356;27.672;2023-04-10T12:11:22;98055.47;;;13.21;50.96
58373;BME280;44177;43.356;27.672;2023-04-10T12:13:52;98063.25;;;13.19;51.21
58373;BME280;44177;43.356;27.672;2023-04-10T12:16:18;98037.31;;;13.09;50.47
58373;BME280;44177;43.356;27.672;2023-04-10T12:18:44;98056.97;;;13.15;50.78
58373;BME280;44177;43.356;27.672;2023-04-10T12:21:10;98054.88;;;13.08;51.23
58373;BME280;44177;43.356;27.672;2023-04-10T12:23:37;98047.47;;;13.08;50.33
58373;BME280;44177;43.356;27.672;2023-04-10T12:26:14;98037.25;;;13.05;51.08
58373;BME280;44177;43.356;27.672;2023-04-10T12:28:41;98038.88;;;13.10;50.78
58373;BME280;44177;43.356;27.672;2023-04-10T12:31:13;98033.63;;;12.98;50.63
58373;BME280;44177;43.356;27.672;2023-04-10T12:33:38;98039.72;;;13.14;50.18
58373;BME280;44177;43.356;27.672;2023-04-10T12:36:04;98028.03;;;13.17;50.33
58373;BME280;44177;43.356;27.672;2023-04-10T12:38:42;98020.78;;;13.29;49.89
58373;BME280;44177;43.356;27.672;2023-04-10T12:41:10;98026.78;;;13.38;50.01
58373;BME280;44177;43.356;27.672;2023-04-10T12:43:40;98020.47;;;13.34;50.46
58373;BME280;44177;43.356;27.672;2023-04-10T12:46:08;98011.94;;;13.39;50.67
58373;BME280;44177;43.356;27.672;2023-04-10T12:48:34;98005.72;;;13.42;50.75
58373;BME280;44177;43.356;27.672;2023-04-10T12:51:01;98001.97;;;13.54;50.40
58373;BME280;44177;43.356;27.672;2023-04-10T12:53:26;98001.56;;;13.52;50.48
58373;BME280;44177;43.356;27.672;2023-04-10T12:56:11;98002.34;;;13.52;49.41
58373;BME280;44177;43.356;27.672;2023-04-10T12:58:38;98005.88;;;13.53;49.62
58373;BME280;44177;43.356;27.672;2023-04-10T13:01:05;97989.91;;;13.58;50.29
58373;BME280;44177;43.356;27.672;2023-04-10T13:03:34;97978.44;;;13.49;49.44
58373;BME280;44177;43.356;27.672;2023-04-10T13:06:01;97981.59;;;13.51;49.04
58373;BME280;44177;43.356;27.672;2023-04-10T13:08:26;97987.03;;;13.48;48.84
58373;BME280;44177;43.356;27.672;2023-04-10T13:10:52;97981.50;;;13.44;49.62
58373;BME280;44177;43.356;27.672;2023-04-10T13:13:19;97986.13;;;13.40;49.67
58373;BME280;44177;43.356;27.672;2023-04-10T13:15:45;97980.47;;;13.29;49.79
58373;BME280;44177;43.356;27.672;2023-04-10T13:18:10;97975.31;;;13.24;50.70
58373;BME280;44177;43.356;27.672;2023-04-10T13:20:37;97982.09;;;13.34;50.10
58373;BME280;44177;43.356;27.672;2023-04-10T13:23:04;97974.00;;;13.14;49.41
58373;BME280;44177;43.356;27.672;2023-04-10T13:25:31;97977.25;;;13.23;50.36
58373;BME280;44177;43.356;27.672;2023-04-10T13:27:58;97971.63;;;13.13;50.96
58373;BME280;44177;43.356;27.672;2023-04-10T13:30:25;97971.69;;;12.89;52.50
58373;BME280;44177;43.356;27.672;2023-04-10T13:32:51;97990.13;;;12.69;55.10
58373;BME280;44177;43.356;27.672;2023-04-10T13:35:16;97991.22;;;12.64;55.71
58373;BME280;44177;43.356;27.672;2023-04-10T13:37:42;97983.78;;;12.65;55.80